createdAt,value
2022-10-19T00:01:58.591Z,37.30
2022-10-19T00:04:25.124Z,37.40
2022-10-19T00:06:51.576Z,42.30
2022-10-19T00:09:19.322Z,40.37
2022-10-19T00:11:48.415Z,41.73
2022-10-19T00:14:18.761Z,45.33
2022-10-19T00:16:47.140Z,41.47
2022-10-19T00:19:17.077Z,38.80
2022-10-19T00:21:44.129Z,38.30
2022-10-19T00:24:10.952Z,39.70
2022-10-19T00:26:37.470Z,36.87
2022-10-19T00:29:05.131Z,36.43
2022-10-19T00:31:31.680Z,40.80
2022-10-19T00:33:58.757Z,48.70
2022-10-19T00:36:28.153Z,43.00
2022-10-19T00:38:55.553Z,32.60
2022-10-19T00:41:24.003Z,29.60
2022-10-19T00:43:53.397Z,35.03
2022-10-19T00:46:19.942Z,39.93
2022-10-19T00:48:46.527Z,36.70
2022-10-19T00:51:14.004Z,32.87
2022-10-19T00:53:41.538Z,36.47
2022-10-19T00:56:12.111Z,33.00
2022-10-19T00:58:39.473Z,28.07
2022-10-19T01:01:09.293Z,28.27
2022-10-19T01:03:35.796Z,31.50
2022-10-19T01:06:03.256Z,27.30
2022-10-19T01:08:30.421Z,32.50
2022-10-19T01:11:31.040Z,29.57
2022-10-19T01:14:09.465Z,32.87
2022-10-19T01:16:57.475Z,26.27
2022-10-19T01:19:41.903Z,37.53
2022-10-19T01:22:29.569Z,28.80
2022-10-19T01:28:04.307Z,25.87
2022-10-19T01:30:50.020Z,29.87
2022-10-19T01:33:27.526Z,25.27
2022-10-19T01:36:02.945Z,23.90
2022-10-19T01:38:42.350Z,26.70
2022-10-19T01:41:52.833Z,23.33
2022-10-19T01:44:27.765Z,20.80
2022-10-19T01:46:58.688Z,20.40
2022-10-19T01:49:34.053Z,26.57
2022-10-19T01:52:05.024Z,28.47
2022-10-19T01:54:37.027Z,28.30
2022-10-19T01:57:08.336Z,23.70
2022-10-19T01:59:37.268Z,22.40
2022-10-19T02:02:05.755Z,21.03
2022-10-19T02:04:34.227Z,24.40
2022-10-19T02:07:02.710Z,30.87
2022-10-19T02:09:29.173Z,22.57
2022-10-19T02:11:59.369Z,19.93
2022-10-19T02:14:31.940Z,18.10
2022-10-19T02:17:05.473Z,20.77
2022-10-19T02:19:31.917Z,23.70
2022-10-19T02:21:58.696Z,19.60
2022-10-19T02:24:25.489Z,17.23
2022-10-19T02:26:53.571Z,15.20
2022-10-19T02:29:20.308Z,18.97
2022-10-19T02:31:46.784Z,20.90
2022-10-19T02:34:13.997Z,20.93
2022-10-19T02:36:40.738Z,19.90
2022-10-19T02:39:08.096Z,20.97
2022-10-19T02:41:39.647Z,17.63
2022-10-19T02:44:14.926Z,16.77
2022-10-19T02:46:45.980Z,13.43
2022-10-19T02:49:13.780Z,16.40
2022-10-19T02:51:56.176Z,15.60
2022-10-19T02:54:25.899Z,26.53
2022-10-19T02:56:52.369Z,23.80
2022-10-19T02:59:18.776Z,22.97
2022-10-19T03:01:45.194Z,28.07
2022-10-19T03:04:11.558Z,25.17
2022-10-19T03:06:37.988Z,24.87
2022-10-19T03:09:04.505Z,24.43
2022-10-19T03:11:30.970Z,29.63
2022-10-19T03:13:57.390Z,27.23
2022-10-19T03:16:23.805Z,20.83
2022-10-19T03:18:50.473Z,21.27
2022-10-19T03:21:18.406Z,20.33
2022-10-19T03:23:44.767Z,19.50
2022-10-19T03:26:15.031Z,18.83
2022-10-19T03:28:41.599Z,16.97
2022-10-19T03:31:08.418Z,20.00
2022-10-19T03:33:34.819Z,16.60
2022-10-19T03:36:14.932Z,25.67
2022-10-19T03:38:41.584Z,18.13
2022-10-19T03:41:08.722Z,21.03
2022-10-19T03:43:35.576Z,20.40
2022-10-19T03:46:02.074Z,22.60
2022-10-19T03:48:28.567Z,20.33
2022-10-19T03:51:10.269Z,17.57
2022-10-19T03:53:36.767Z,20.27
2022-10-19T03:56:06.152Z,23.50
2022-10-19T03:58:34.840Z,17.20
2022-10-19T04:01:01.851Z,16.37
2022-10-19T04:03:28.355Z,17.60
2022-10-19T04:06:02.605Z,13.60
2022-10-19T04:08:29.298Z,23.93
2022-10-19T04:11:13.693Z,18.60
2022-10-19T04:13:40.497Z,17.93
2022-10-19T04:16:07.446Z,16.47
2022-10-19T04:18:34.116Z,14.37
2022-10-19T04:21:02.496Z,16.03
2022-10-19T04:23:31.982Z,14.07
2022-10-19T04:26:06.101Z,13.80
2022-10-19T04:28:33.712Z,12.30
2022-10-19T04:31:07.253Z,14.43
2022-10-19T04:33:34.486Z,15.87
2022-10-19T04:36:03.327Z,14.90
2022-10-19T04:38:30.071Z,15.83
2022-10-19T04:41:00.491Z,12.23
2022-10-19T04:43:26.896Z,13.27
2022-10-19T04:45:53.312Z,14.47
2022-10-19T04:48:19.673Z,14.70
2022-10-19T04:50:46.044Z,16.60
2022-10-19T04:53:12.627Z,18.60
2022-10-19T04:55:42.796Z,16.00
2022-10-19T04:58:09.203Z,15.33
2022-10-19T05:00:38.520Z,11.60
2022-10-19T05:03:05.273Z,13.13
2022-10-19T05:05:33.239Z,15.47
2022-10-19T05:08:00.200Z,13.67
2022-10-19T05:10:26.826Z,12.87
2022-10-19T05:12:53.485Z,20.20
2022-10-19T05:15:20.557Z,15.30
2022-10-19T05:17:46.929Z,13.00
2022-10-19T05:20:13.323Z,15.30
2022-10-19T05:22:40.273Z,13.67
2022-10-19T05:25:07.707Z,16.97
2022-10-19T05:27:34.419Z,17.63
2022-10-19T05:30:01.002Z,16.83
2022-10-19T05:32:28.463Z,17.90
2022-10-19T05:34:54.923Z,15.13
2022-10-19T05:37:21.677Z,14.23
2022-10-19T05:39:48.090Z,21.30
2022-10-19T05:42:14.467Z,14.40
2022-10-19T05:44:40.999Z,18.37
2022-10-19T05:47:07.508Z,20.67
2022-10-19T05:49:34.011Z,16.73
2022-10-19T05:52:00.644Z,14.70
2022-10-19T05:54:28.503Z,16.80
2022-10-19T05:56:55.477Z,16.43
2022-10-19T05:59:22.392Z,23.03
2022-10-19T06:01:48.949Z,17.93
2022-10-19T06:06:46.811Z,22.10
2022-10-19T06:09:13.269Z,14.80
2022-10-19T06:11:42.208Z,15.87
2022-10-19T06:14:12.844Z,18.43
2022-10-19T06:16:39.468Z,17.47
2022-10-19T06:19:06.104Z,15.60
2022-10-19T06:21:33.931Z,16.00
2022-10-19T06:24:03.069Z,14.90
2022-10-19T06:26:31.716Z,17.07
2022-10-19T06:29:00.453Z,14.73
2022-10-19T06:31:28.767Z,15.03
2022-10-19T06:33:56.025Z,14.13
2022-10-19T06:36:25.788Z,14.43
2022-10-19T06:38:53.219Z,10.37
2022-10-19T06:41:20.604Z,14.00
2022-10-19T06:43:51.616Z,11.27
2022-10-19T06:46:20.608Z,11.20
2022-10-19T06:48:55.187Z,12.00
2022-10-19T06:51:22.548Z,9.30
2022-10-19T06:53:51.698Z,7.83
2022-10-19T06:56:24.430Z,11.53
2022-10-19T06:58:50.840Z,6.47
2022-10-19T07:01:17.350Z,7.30
2022-10-19T07:03:43.780Z,8.30
2022-10-19T07:06:12.263Z,6.17
2022-10-19T07:08:40.502Z,6.30
2022-10-19T07:11:10.933Z,6.20
2022-10-19T07:13:38.095Z,8.43
2022-10-19T07:16:07.658Z,5.80
2022-10-19T07:18:36.069Z,7.30
2022-10-19T07:21:05.709Z,6.70
2022-10-19T07:23:33.920Z,5.07
2022-10-19T07:26:07.615Z,4.57
2022-10-19T07:28:34.401Z,5.50
2022-10-19T07:31:06.309Z,5.43
2022-10-19T07:33:32.763Z,8.20
2022-10-19T07:36:01.328Z,5.80
2022-10-19T07:38:29.728Z,6.97
2022-10-19T07:41:03.356Z,7.97
2022-10-19T07:43:29.858Z,5.10
2022-10-19T07:46:11.402Z,9.27
2022-10-19T07:48:37.816Z,5.90
2022-10-19T07:51:06.836Z,6.53
2022-10-19T07:53:34.562Z,6.00
2022-10-19T07:56:12.719Z,7.43
2022-10-19T07:58:39.698Z,6.63
2022-10-19T08:01:17.669Z,5.83
2022-10-19T08:06:31.877Z,7.00
2022-10-19T08:08:58.308Z,7.10
2022-10-19T08:11:26.609Z,7.13
2022-10-19T08:13:53.388Z,11.20
2022-10-19T08:16:37.286Z,9.37
2022-10-19T08:19:07.163Z,10.20
2022-10-19T08:21:34.710Z,9.33
2022-10-19T08:24:01.253Z,9.97
2022-10-19T08:26:32.873Z,10.80
2022-10-19T08:29:09.899Z,11.63
2022-10-19T08:31:36.375Z,16.03
2022-10-19T08:34:03.344Z,17.00
2022-10-19T08:36:31.386Z,16.23
2022-10-19T08:38:58.353Z,20.13
2022-10-19T08:42:04.893Z,22.27
2022-10-19T08:44:53.068Z,22.70
2022-10-19T08:47:50.522Z,17.70
2022-10-19T08:50:32.937Z,18.87
2022-10-19T08:53:06.303Z,18.30
2022-10-19T08:55:51.433Z,16.80
2022-10-19T08:58:32.859Z,19.90
2022-10-19T09:01:27.521Z,16.63
2022-10-19T09:04:13.001Z,13.60
2022-10-19T09:06:51.315Z,18.43
2022-10-19T09:09:18.937Z,19.60
2022-10-19T09:11:49.642Z,19.83
2022-10-19T09:14:38.440Z,18.63
2022-10-19T09:17:12.418Z,16.50
2022-10-19T09:19:38.815Z,15.80
2022-10-19T09:22:19.011Z,14.90
2022-10-19T09:24:51.842Z,14.17
2022-10-19T09:27:25.738Z,13.80
2022-10-19T09:29:56.699Z,14.57
2022-10-19T09:32:31.018Z,13.60
2022-10-19T09:35:02.335Z,14.70
2022-10-19T09:40:01.628Z,17.43
2022-10-19T09:42:32.917Z,17.57
2022-10-19T09:45:02.848Z,14.03
2022-10-19T09:47:38.331Z,16.83
2022-10-19T09:50:19.420Z,15.63
2022-10-19T09:52:47.761Z,17.83
2022-10-19T09:55:14.082Z,12.20
2022-10-19T09:57:44.432Z,25.67
2022-10-19T10:00:33.726Z,25.43
2022-10-19T10:03:00.448Z,12.33
2022-10-19T10:05:39.192Z,11.50
2022-10-19T10:08:15.760Z,13.63
2022-10-19T10:10:59.452Z,11.27
2022-10-19T10:13:28.016Z,15.10
2022-10-19T10:15:59.913Z,13.20
2022-10-19T10:18:28.686Z,11.13
2022-10-19T10:21:25.708Z,14.47
2022-10-19T10:23:59.941Z,16.63
2022-10-19T10:26:26.542Z,15.00
2022-10-19T10:28:54.610Z,14.37
2022-10-19T10:31:26.168Z,15.37
2022-10-19T10:33:56.176Z,13.13
2022-10-19T10:36:26.151Z,16.20
2022-10-19T10:38:58.956Z,9.60
2022-10-19T10:41:29.015Z,12.93
2022-10-19T10:44:04.507Z,7.93
2022-10-19T10:46:40.465Z,9.73
2022-10-19T10:49:16.173Z,13.80
2022-10-19T10:51:53.034Z,10.73
2022-10-19T10:54:21.120Z,12.50
2022-10-19T10:57:10.045Z,12.63
2022-10-19T10:59:45.780Z,12.20
2022-10-19T11:02:43.222Z,13.67
2022-10-19T11:05:40.593Z,9.43
2022-10-19T11:08:18.963Z,9.90
2022-10-19T11:10:51.509Z,10.87
2022-10-19T11:13:27.345Z,8.57
2022-10-19T11:15:59.320Z,11.77
2022-10-19T11:18:34.647Z,7.67
2022-10-19T11:21:16.678Z,8.20
2022-10-19T11:23:55.213Z,9.43
2022-10-19T11:26:41.906Z,11.37
2022-10-19T11:29:33.912Z,11.20
2022-10-19T11:32:00.425Z,7.10
2022-10-19T11:34:45.157Z,6.50
2022-10-19T11:37:35.264Z,7.43
2022-10-19T11:40:33.623Z,8.57
2022-10-19T11:43:15.640Z,11.07
2022-10-19T11:46:04.981Z,6.73
2022-10-19T11:48:54.782Z,6.67
2022-10-19T11:51:45.860Z,15.83
2022-10-19T11:54:24.266Z,9.90
2022-10-19T11:57:04.098Z,8.50
2022-10-19T11:59:49.329Z,9.40
2022-10-19T12:02:43.955Z,9.73
2022-10-19T12:05:21.752Z,6.90
2022-10-19T12:08:00.112Z,7.73
2022-10-19T12:10:35.513Z,7.47
2022-10-19T12:13:05.465Z,8.80
2022-10-19T12:15:43.084Z,7.00
2022-10-19T12:18:27.647Z,8.80
2022-10-19T12:20:59.090Z,6.37
2022-10-19T12:23:35.714Z,6.90
2022-10-19T12:26:05.170Z,10.23
2022-10-19T12:28:35.576Z,7.40
2022-10-19T12:31:04.493Z,7.13
2022-10-19T12:33:36.915Z,10.63
2022-10-19T12:36:13.232Z,9.20
2022-10-19T12:38:50.925Z,8.97
2022-10-19T12:41:36.219Z,8.10
2022-10-19T12:44:11.967Z,10.40
2022-10-19T12:46:48.400Z,17.30
2022-10-19T12:49:27.022Z,8.33
2022-10-19T12:51:58.742Z,8.77
2022-10-19T12:54:30.269Z,10.80
2022-10-19T12:56:59.183Z,7.10
2022-10-19T12:59:36.435Z,6.13
2022-10-19T13:02:06.576Z,8.87
2022-10-19T13:04:35.916Z,11.87
2022-10-19T13:07:08.208Z,6.13
2022-10-19T13:09:42.845Z,14.37
2022-10-19T13:12:19.468Z,9.50
2022-10-19T13:14:53.731Z,8.50
2022-10-19T13:17:40.757Z,9.17
2022-10-19T13:20:13.242Z,5.50
2022-10-19T13:22:40.376Z,4.80
2022-10-19T13:25:26.987Z,5.57
2022-10-19T13:28:02.196Z,4.90
2022-10-19T13:30:46.563Z,3.70
2022-10-19T13:33:35.132Z,8.73
2022-10-19T13:36:02.371Z,8.70
2022-10-19T13:38:41.532Z,3.90
2022-10-19T13:41:15.425Z,6.63
2022-10-19T13:43:53.637Z,3.63
2022-10-19T13:46:32.373Z,5.20
2022-10-19T13:49:06.589Z,8.13
2022-10-19T13:51:54.175Z,4.37
2022-10-19T13:54:23.747Z,4.90
2022-10-19T13:57:28.139Z,5.60
2022-10-19T13:59:57.477Z,8.97
2022-10-19T14:02:54.926Z,5.40
2022-10-19T14:08:38.962Z,6.67
2022-10-19T14:11:16.197Z,4.63
2022-10-19T14:13:43.206Z,4.90
2022-10-19T14:16:21.141Z,6.40
2022-10-19T14:18:55.696Z,4.40
2022-10-19T14:21:33.934Z,6.50
2022-10-19T14:24:32.876Z,6.80
2022-10-19T14:27:02.134Z,4.87
2022-10-19T14:29:28.976Z,4.73
2022-10-19T14:31:55.449Z,6.93
2022-10-19T14:34:22.066Z,5.03
2022-10-19T14:36:49.411Z,6.47
2022-10-19T14:39:33.510Z,5.73
2022-10-19T14:42:06.152Z,7.37
2022-10-19T14:44:43.686Z,5.20
2022-10-19T14:47:21.133Z,5.03
2022-10-19T14:49:48.538Z,5.20
2022-10-19T14:52:24.843Z,8.53
2022-10-19T14:54:54.148Z,4.07
2022-10-19T14:57:30.606Z,5.87
2022-10-19T15:00:01.679Z,6.20
2022-10-19T15:02:34.026Z,6.93
2022-10-19T15:05:03.249Z,3.73
2022-10-19T15:07:41.665Z,5.37
2022-10-19T15:10:17.823Z,5.40
2022-10-19T15:12:45.213Z,4.27
2022-10-19T15:15:19.190Z,5.73
2022-10-19T15:17:54.644Z,4.73
2022-10-19T15:20:49.497Z,5.73
2022-10-19T15:23:39.608Z,4.63
2022-10-19T15:26:21.130Z,6.60
2022-10-19T15:28:48.897Z,4.90
2022-10-19T15:31:17.483Z,5.33
2022-10-19T15:33:48.864Z,5.00
2022-10-19T15:36:19.630Z,6.03
2022-10-19T15:38:48.899Z,12.50
2022-10-19T15:41:19.393Z,10.53
2022-10-19T15:43:50.069Z,6.17
2022-10-19T15:46:28.217Z,5.80
2022-10-19T15:48:56.539Z,7.07
2022-10-19T15:51:26.150Z,4.20
2022-10-19T15:54:04.395Z,13.47
2022-10-19T15:56:33.622Z,5.23
2022-10-19T15:59:01.476Z,9.83
2022-10-19T16:01:30.762Z,8.97
2022-10-19T16:03:57.568Z,5.70
2022-10-19T16:06:28.071Z,5.47
2022-10-19T16:08:54.634Z,6.80
2022-10-19T16:11:23.127Z,6.17
2022-10-19T16:13:49.963Z,6.23
2022-10-19T16:16:23.329Z,8.93
2022-10-19T16:18:49.835Z,7.63
2022-10-19T16:21:16.654Z,9.47
2022-10-19T16:23:43.110Z,4.37
2022-10-19T16:26:13.544Z,6.17
2022-10-19T16:28:40.284Z,6.03
2022-10-19T16:31:08.226Z,6.03
2022-10-19T16:33:34.624Z,6.93
2022-10-19T16:36:05.015Z,9.70
2022-10-19T16:38:31.495Z,9.57
2022-10-19T16:41:02.598Z,6.60
2022-10-19T16:43:29.770Z,7.73
2022-10-19T16:45:56.842Z,5.73
2022-10-19T16:48:24.081Z,10.67
2022-10-19T16:51:06.516Z,5.57
2022-10-19T16:53:34.533Z,5.60
2022-10-19T16:56:09.899Z,6.37
2022-10-19T16:58:39.730Z,8.60
2022-10-19T17:01:10.594Z,8.60
2022-10-19T17:03:37.647Z,8.53
2022-10-19T17:06:06.294Z,5.73
2022-10-19T17:08:37.124Z,7.47
2022-10-19T17:11:21.689Z,6.57
2022-10-19T17:13:49.778Z,7.40
2022-10-19T17:16:17.583Z,6.67
2022-10-19T17:18:44.451Z,5.03
2022-10-19T17:21:14.078Z,5.27
2022-10-19T17:23:41.113Z,9.17
2022-10-19T17:26:08.386Z,5.53
2022-10-19T17:28:36.479Z,7.37
2022-10-19T17:31:07.990Z,7.50
2022-10-19T17:33:36.200Z,9.27
2022-10-19T17:36:07.602Z,8.30
2022-10-19T17:38:34.560Z,6.90
2022-10-19T17:41:03.249Z,5.63
2022-10-19T17:43:29.930Z,4.40
2022-10-19T17:46:05.237Z,6.63
2022-10-19T17:48:32.707Z,5.43
2022-10-19T17:51:01.994Z,4.50
2022-10-19T17:53:29.441Z,5.73
2022-10-19T17:55:58.906Z,6.57
2022-10-19T17:58:25.324Z,8.80
2022-10-19T18:00:55.555Z,8.83
2022-10-19T18:03:26.538Z,8.00
2022-10-19T18:06:00.366Z,7.93
2022-10-19T18:08:27.687Z,5.37
2022-10-19T18:10:57.097Z,4.47
2022-10-19T18:13:23.644Z,4.53
2022-10-19T18:15:50.144Z,8.90
2022-10-19T18:18:18.566Z,6.80
2022-10-19T18:20:45.913Z,7.23
2022-10-19T18:23:12.312Z,7.63
2022-10-19T18:25:53.514Z,5.70
2022-10-19T18:28:20.903Z,8.40
2022-10-19T18:30:47.952Z,6.07
2022-10-19T18:33:14.409Z,10.40
2022-10-19T18:35:41.184Z,7.23
2022-10-19T18:38:08.066Z,4.30
2022-10-19T18:40:37.020Z,7.90
2022-10-19T18:43:04.870Z,6.93
2022-10-19T18:45:31.911Z,6.63
2022-10-19T18:47:58.581Z,6.13
2022-10-19T18:50:25.001Z,4.37
2022-10-19T18:52:51.399Z,5.37
2022-10-19T18:55:18.008Z,7.13
2022-10-19T18:57:44.380Z,5.87
2022-10-19T19:00:11.357Z,4.80
2022-10-19T19:02:46.558Z,5.30
2022-10-19T19:05:13.514Z,6.53
2022-10-19T19:07:39.868Z,4.37
2022-10-19T19:10:06.845Z,8.57
2022-10-19T19:12:33.593Z,5.70
2022-10-19T19:15:00.209Z,8.87
2022-10-19T19:17:26.623Z,5.33
2022-10-19T19:19:53.056Z,4.37
2022-10-19T19:22:19.567Z,7.30
2022-10-19T19:24:49.483Z,4.50
2022-10-19T19:27:15.878Z,4.40
2022-10-19T19:29:43.137Z,5.80
2022-10-19T19:32:09.622Z,7.30
2022-10-19T19:34:36.036Z,8.30
2022-10-19T19:37:04.104Z,3.80
2022-10-19T19:39:32.068Z,6.13
2022-10-19T19:41:58.468Z,5.57
2022-10-19T19:44:29.414Z,7.77
2022-10-19T19:46:57.461Z,6.90
2022-10-19T19:49:25.017Z,4.97
2022-10-19T19:51:52.411Z,6.97
2022-10-19T19:54:22.943Z,6.03
2022-10-19T19:56:53.705Z,4.90
2022-10-19T19:59:20.317Z,8.90
2022-10-19T20:01:46.996Z,5.20
2022-10-19T20:04:13.566Z,6.30
2022-10-19T20:06:41.241Z,5.43
2022-10-19T20:09:08.505Z,7.20
2022-10-19T20:11:37.254Z,4.93
2022-10-19T20:14:07.658Z,5.00
2022-10-19T20:16:34.291Z,4.93
2022-10-19T20:19:07.136Z,7.20
2022-10-19T20:21:33.646Z,10.03
2022-10-19T20:24:00.399Z,5.53
2022-10-19T20:26:27.784Z,6.07
2022-10-19T20:28:54.366Z,6.30
2022-10-19T20:31:21.127Z,8.20
2022-10-19T20:33:48.250Z,10.53
2022-10-19T20:36:21.543Z,7.67
2022-10-19T20:38:50.933Z,10.70
2022-10-19T20:41:19.089Z,8.50
2022-10-19T20:43:45.839Z,6.13
2022-10-19T20:46:15.880Z,8.40
2022-10-19T20:48:42.317Z,7.20
2022-10-19T20:51:17.147Z,6.43
2022-10-19T20:53:47.881Z,7.97
2022-10-19T20:56:16.749Z,8.70
2022-10-19T20:58:43.883Z,5.53
2022-10-19T21:01:16.218Z,6.63
2022-10-19T21:03:52.596Z,8.67
2022-10-19T21:06:20.155Z,5.60
2022-10-19T21:08:46.733Z,8.40
2022-10-19T21:11:22.317Z,9.27
2022-10-19T21:13:52.468Z,6.77
2022-10-19T21:16:20.979Z,7.33
2022-10-19T21:18:49.181Z,6.60
2022-10-19T21:21:19.446Z,10.80
2022-10-19T21:23:48.827Z,8.63
2022-10-19T21:26:16.076Z,7.93
2022-10-19T21:28:47.654Z,6.83
2022-10-19T21:31:14.968Z,6.43
2022-10-19T21:33:41.623Z,6.70
2022-10-19T21:36:09.579Z,7.60
2022-10-19T21:38:36.589Z,9.03
2022-10-19T21:41:05.577Z,8.70
2022-10-19T21:43:32.363Z,10.27
2022-10-19T21:46:02.213Z,12.80
2022-10-19T21:48:29.903Z,7.97
2022-10-19T21:50:56.331Z,7.90
2022-10-19T21:53:23.597Z,6.03
2022-10-19T21:55:51.478Z,6.90
2022-10-19T21:58:17.903Z,8.77
2022-10-19T22:00:44.337Z,9.70
2022-10-19T22:03:10.755Z,9.80
2022-10-19T22:05:37.165Z,9.63
2022-10-19T22:08:03.746Z,8.67
2022-10-19T22:10:30.173Z,8.20
2022-10-19T22:12:57.226Z,9.60
2022-10-19T22:15:23.652Z,9.00
2022-10-19T22:17:50.094Z,9.10
2022-10-19T22:20:16.621Z,9.00
2022-10-19T22:22:43.085Z,10.43
2022-10-19T22:25:09.520Z,9.63
2022-10-19T22:27:35.889Z,7.53
2022-10-19T22:30:02.320Z,7.53
2022-10-19T22:32:28.757Z,8.27
2022-10-19T22:34:55.134Z,8.70
2022-10-19T22:37:21.526Z,8.10
2022-10-19T22:39:47.931Z,9.00
2022-10-19T22:42:14.332Z,7.13
2022-10-19T22:44:40.688Z,11.00
2022-10-19T22:47:07.053Z,8.47
2022-10-19T22:49:33.497Z,11.13
2022-10-19T22:51:59.859Z,7.03
2022-10-19T22:54:26.255Z,9.53
2022-10-19T22:56:53.447Z,8.47
2022-10-19T22:59:19.836Z,9.30
2022-10-19T23:01:46.250Z,7.27
2022-10-19T23:04:12.636Z,8.77
2022-10-19T23:06:39.077Z,9.27
2022-10-19T23:09:06.567Z,7.73
2022-10-19T23:11:32.992Z,7.80
2022-10-19T23:13:59.400Z,8.13
2022-10-19T23:16:25.768Z,10.67
2022-10-19T23:18:52.199Z,8.90
2022-10-19T23:21:18.551Z,9.83
2022-10-19T23:23:44.975Z,9.20
2022-10-19T23:26:14.304Z,11.03
2022-10-19T23:28:42.723Z,10.20
2022-10-19T23:31:12.331Z,7.50
2022-10-19T23:33:39.377Z,7.10
2022-10-19T23:36:08.900Z,14.47
2022-10-19T23:38:36.192Z,9.67
2022-10-19T23:41:02.738Z,8.20
2022-10-19T23:43:29.449Z,8.97
2022-10-19T23:45:55.960Z,7.00
2022-10-19T23:48:22.409Z,7.57
2022-10-19T23:50:58.556Z,7.40
2022-10-19T23:53:25.969Z,11.53
2022-10-19T23:55:57.500Z,8.20
2022-10-19T23:58:23.909Z,8.00
